sensor_id;sensor_type;location;lat;lon;timestamp;P1;durP1;ratioP1;P2;durP2;ratioP2
63316;SDS011;49822;41.468;13.560;2022-12-29T00:01:05;31.23;;;12.02;;
63316;SDS011;49822;41.468;13.560;2022-12-29T00:03:32;33.97;;;12.80;;
63316;SDS011;49822;41.468;13.560;2022-12-29T00:06:00;27.58;;;12.75;;
63316;SDS011;49822;41.468;13.560;2022-12-29T00:08:29;28.80;;;12.40;;
63316;SDS011;49822;41.468;13.560;2022-12-29T00:11:11;33.17;;;16.13;;
63316;SDS011;49822;41.468;13.560;2022-12-29T00:13:42;55.33;;;20.60;;
63316;SDS011;49822;41.468;13.560;2022-12-29T00:16:28;38.85;;;15.07;;
63316;SDS011;49822;41.468;13.560;2022-12-29T00:18:57;32.20;;;13.85;;
63316;SDS011;49822;41.468;13.560;2022-12-29T00:21:25;28.48;;;12.93;;
63316;SDS011;49822;41.468;13.560;2022-12-29T00:24:13;25.90;;;11.25;;
63316;SDS011;49822;41.468;13.560;2022-12-29T00:29:49;33.83;;;13.85;;
63316;SDS011;49822;41.468;13.560;2022-12-29T00:32:35;25.67;;;12.27;;
63316;SDS011;49822;41.468;13.560;2022-12-29T00:35:26;29.88;;;12.88;;
63316;SDS011;49822;41.468;13.560;2022-12-29T00:37:57;36.83;;;16.25;;
63316;SDS011;49822;41.468;13.560;2022-12-29T00:40:48;37.60;;;14.50;;
63316;SDS011;49822;41.468;13.560;2022-12-29T00:43:34;36.05;;;15.45;;
63316;SDS011;49822;41.468;13.560;2022-12-29T00:46:20;34.95;;;16.20;;
63316;SDS011;49822;41.468;13.560;2022-12-29T00:48:47;36.35;;;15.80;;
63316;SDS011;49822;41.468;13.560;2022-12-29T00:51:34;38.33;;;15.13;;
63316;SDS011;49822;41.468;13.560;2022-12-29T00:54:01;37.85;;;15.23;;
63316;SDS011;49822;41.468;13.560;2022-12-29T00:56:29;33.85;;;15.10;;
63316;SDS011;49822;41.468;13.560;2022-12-29T00:59:03;35.72;;;15.27;;
63316;SDS011;49822;41.468;13.560;2022-12-29T01:01:35;27.98;;;13.05;;
63316;SDS011;49822;41.468;13.560;2022-12-29T01:04:03;28.70;;;12.95;;
63316;SDS011;49822;41.468;13.560;2022-12-29T01:06:32;29.67;;;13.05;;
63316;SDS011;49822;41.468;13.560;2022-12-29T01:09:01;27.70;;;12.00;;
63316;SDS011;49822;41.468;13.560;2022-12-29T01:11:48;22.50;;;12.02;;
63316;SDS011;49822;41.468;13.560;2022-12-29T01:14:16;30.80;;;12.68;;
63316;SDS011;49822;41.468;13.560;2022-12-29T01:16:44;26.23;;;11.35;;
63316;SDS011;49822;41.468;13.560;2022-12-29T01:19:13;27.38;;;11.82;;
63316;SDS011;49822;41.468;13.560;2022-12-29T01:21:44;32.60;;;14.68;;
63316;SDS011;49822;41.468;13.560;2022-12-29T01:24:13;31.13;;;13.35;;
63316;SDS011;49822;41.468;13.560;2022-12-29T01:26:42;33.53;;;13.93;;
63316;SDS011;49822;41.468;13.560;2022-12-29T01:29:10;32.65;;;13.35;;
63316;SDS011;49822;41.468;13.560;2022-12-29T01:31:38;27.02;;;12.20;;
63316;SDS011;49822;41.468;13.560;2022-12-29T01:34:07;24.40;;;10.20;;
63316;SDS011;49822;41.468;13.560;2022-12-29T01:36:37;32.58;;;13.68;;
63316;SDS011;49822;41.468;13.560;2022-12-29T01:39:04;46.55;;;22.17;;
63316;SDS011;49822;41.468;13.560;2022-12-29T01:41:32;50.33;;;24.65;;
63316;SDS011;49822;41.468;13.560;2022-12-29T01:44:00;25.40;;;11.60;;
63316;SDS011;49822;41.468;13.560;2022-12-29T01:46:32;29.17;;;12.30;;
63316;SDS011;49822;41.468;13.560;2022-12-29T01:51:45;29.10;;;12.93;;
63316;SDS011;49822;41.468;13.560;2022-12-29T01:54:22;23.73;;;11.13;;
63316;SDS011;49822;41.468;13.560;2022-12-29T01:56:53;27.33;;;12.20;;
63316;SDS011;49822;41.468;13.560;2022-12-29T01:59:26;31.90;;;13.93;;
63316;SDS011;49822;41.468;13.560;2022-12-29T02:01:57;31.45;;;14.05;;
63316;SDS011;49822;41.468;13.560;2022-12-29T02:04:26;30.70;;;14.70;;
63316;SDS011;49822;41.468;13.560;2022-12-29T02:07:01;35.83;;;14.95;;
63316;SDS011;49822;41.468;13.560;2022-12-29T02:09:35;30.05;;;13.77;;
63316;SDS011;49822;41.468;13.560;2022-12-29T02:12:03;36.17;;;14.25;;
63316;SDS011;49822;41.468;13.560;2022-12-29T02:14:31;32.95;;;14.95;;
63316;SDS011;49822;41.468;13.560;2022-12-29T02:17:23;33.53;;;14.40;;
63316;SDS011;49822;41.468;13.560;2022-12-29T02:25:44;29.48;;;12.93;;
63316;SDS011;49822;41.468;13.560;2022-12-29T02:31:40;29.23;;;14.10;;
63316;SDS011;49822;41.468;13.560;2022-12-29T02:37:11;32.13;;;13.77;;
63316;SDS011;49822;41.468;13.560;2022-12-29T02:45:30;30.08;;;12.80;;
63316;SDS011;49822;41.468;13.560;2022-12-29T02:51:08;31.73;;;13.68;;
63316;SDS011;49822;41.468;13.560;2022-12-29T02:53:42;28.35;;;12.43;;
63316;SDS011;49822;41.468;13.560;2022-12-29T02:56:29;31.58;;;14.32;;
63316;SDS011;49822;41.468;13.560;2022-12-29T02:58:57;30.65;;;13.95;;
63316;SDS011;49822;41.468;13.560;2022-12-29T03:01:29;27.42;;;13.25;;
63316;SDS011;49822;41.468;13.560;2022-12-29T03:04:51;26.67;;;12.30;;
63316;SDS011;49822;41.468;13.560;2022-12-29T03:07:55;38.90;;;16.35;;
63316;SDS011;49822;41.468;13.560;2022-12-29T03:16:37;45.03;;;17.08;;
63316;SDS011;49822;41.468;13.560;2022-12-29T03:19:16;39.20;;;17.40;;
63316;SDS011;49822;41.468;13.560;2022-12-29T03:22:13;35.90;;;14.85;;
63316;SDS011;49822;41.468;13.560;2022-12-29T03:28:22;35.97;;;16.58;;
63316;SDS011;49822;41.468;13.560;2022-12-29T03:31:17;30.15;;;14.38;;
63316;SDS011;49822;41.468;13.560;2022-12-29T03:33:48;29.20;;;12.95;;
63316;SDS011;49822;41.468;13.560;2022-12-29T03:36:18;31.77;;;14.02;;
63316;SDS011;49822;41.468;13.560;2022-12-29T03:39:20;31.52;;;14.48;;
63316;SDS011;49822;41.468;13.560;2022-12-29T03:41:51;31.05;;;14.48;;
63316;SDS011;49822;41.468;13.560;2022-12-29T03:44:33;27.33;;;12.95;;
63316;SDS011;49822;41.468;13.560;2022-12-29T03:47:04;31.58;;;14.65;;
63316;SDS011;49822;41.468;13.560;2022-12-29T03:49:33;170.00;;;42.65;;
63316;SDS011;49822;41.468;13.560;2022-12-29T03:52:03;154.00;;;41.87;;
63316;SDS011;49822;41.468;13.560;2022-12-29T03:54:35;93.03;;;30.92;;
63316;SDS011;49822;41.468;13.560;2022-12-29T03:57:04;68.20;;;22.45;;
63316;SDS011;49822;41.468;13.560;2022-12-29T03:59:44;100.10;;;30.58;;
63316;SDS011;49822;41.468;13.560;2022-12-29T04:02:12;52.45;;;19.00;;
63316;SDS011;49822;41.468;13.560;2022-12-29T04:04:40;41.17;;;16.40;;
63316;SDS011;49822;41.468;13.560;2022-12-29T04:07:09;43.38;;;16.88;;
63316;SDS011;49822;41.468;13.560;2022-12-29T04:09:36;28.33;;;12.82;;
63316;SDS011;49822;41.468;13.560;2022-12-29T04:12:04;34.55;;;14.20;;
63316;SDS011;49822;41.468;13.560;2022-12-29T04:14:34;27.35;;;13.20;;
63316;SDS011;49822;41.468;13.560;2022-12-29T04:17:02;31.92;;;15.32;;
63316;SDS011;49822;41.468;13.560;2022-12-29T04:19:30;29.40;;;14.55;;
63316;SDS011;49822;41.468;13.560;2022-12-29T04:21:57;28.23;;;13.23;;
63316;SDS011;49822;41.468;13.560;2022-12-29T04:24:26;23.67;;;11.32;;
63316;SDS011;49822;41.468;13.560;2022-12-29T04:26:54;24.70;;;12.40;;
63316;SDS011;49822;41.468;13.560;2022-12-29T04:30:00;38.75;;;14.80;;
63316;SDS011;49822;41.468;13.560;2022-12-29T04:32:45;124.75;;;29.92;;
63316;SDS011;49822;41.468;13.560;2022-12-29T04:35:13;109.55;;;28.95;;
63316;SDS011;49822;41.468;13.560;2022-12-29T04:37:41;56.05;;;20.63;;
63316;SDS011;49822;41.468;13.560;2022-12-29T04:40:09;31.88;;;14.55;;
63316;SDS011;49822;41.468;13.560;2022-12-29T04:42:37;36.40;;;13.57;;
63316;SDS011;49822;41.468;13.560;2022-12-29T04:45:06;33.78;;;13.30;;
63316;SDS011;49822;41.468;13.560;2022-12-29T04:47:55;29.75;;;12.35;;
63316;SDS011;49822;41.468;13.560;2022-12-29T04:50:42;32.92;;;12.57;;
63316;SDS011;49822;41.468;13.560;2022-12-29T04:53:16;26.63;;;12.25;;
63316;SDS011;49822;41.468;13.560;2022-12-29T04:55:48;27.70;;;11.85;;
63316;SDS011;49822;41.468;13.560;2022-12-29T04:58:18;32.13;;;13.85;;
63316;SDS011;49822;41.468;13.560;2022-12-29T05:00:51;34.15;;;15.48;;
63316;SDS011;49822;41.468;13.560;2022-12-29T05:03:25;37.60;;;16.73;;
63316;SDS011;49822;41.468;13.560;2022-12-29T05:05:54;34.33;;;12.98;;
63316;SDS011;49822;41.468;13.560;2022-12-29T05:08:22;25.90;;;11.57;;
63316;SDS011;49822;41.468;13.560;2022-12-29T05:10:57;28.02;;;10.93;;
63316;SDS011;49822;41.468;13.560;2022-12-29T05:13:25;27.23;;;11.52;;
63316;SDS011;49822;41.468;13.560;2022-12-29T05:15:53;23.77;;;11.48;;
63316;SDS011;49822;41.468;13.560;2022-12-29T05:18:24;28.02;;;11.65;;
63316;SDS011;49822;41.468;13.560;2022-12-29T05:20:51;26.45;;;10.95;;
63316;SDS011;49822;41.468;13.560;2022-12-29T05:23:20;25.15;;;11.68;;
63316;SDS011;49822;41.468;13.560;2022-12-29T05:25:54;26.20;;;10.77;;
63316;SDS011;49822;41.468;13.560;2022-12-29T05:28:35;32.10;;;13.27;;
63316;SDS011;49822;41.468;13.560;2022-12-29T05:31:09;28.70;;;12.55;;
63316;SDS011;49822;41.468;13.560;2022-12-29T05:33:37;38.83;;;16.40;;
63316;SDS011;49822;41.468;13.560;2022-12-29T05:36:06;25.33;;;12.00;;
63316;SDS011;49822;41.468;13.560;2022-12-29T05:38:38;24.85;;;12.55;;
63316;SDS011;49822;41.468;13.560;2022-12-29T05:41:06;25.50;;;10.95;;
63316;SDS011;49822;41.468;13.560;2022-12-29T05:44:00;28.55;;;11.57;;
63316;SDS011;49822;41.468;13.560;2022-12-29T05:46:28;27.92;;;12.30;;
63316;SDS011;49822;41.468;13.560;2022-12-29T05:49:09;34.00;;;14.00;;
63316;SDS011;49822;41.468;13.560;2022-12-29T05:51:51;29.38;;;12.82;;
63316;SDS011;49822;41.468;13.560;2022-12-29T05:54:18;29.17;;;13.70;;
63316;SDS011;49822;41.468;13.560;2022-12-29T05:56:48;30.70;;;14.75;;
63316;SDS011;49822;41.468;13.560;2022-12-29T05:59:17;33.63;;;13.15;;
63316;SDS011;49822;41.468;13.560;2022-12-29T06:01:44;28.42;;;12.90;;
63316;SDS011;49822;41.468;13.560;2022-12-29T06:04:12;35.42;;;12.88;;
63316;SDS011;49822;41.468;13.560;2022-12-29T06:06:40;30.95;;;13.73;;
63316;SDS011;49822;41.468;13.560;2022-12-29T06:09:15;42.10;;;15.40;;
63316;SDS011;49822;41.468;13.560;2022-12-29T06:11:43;38.58;;;15.93;;
63316;SDS011;49822;41.468;13.560;2022-12-29T06:14:10;36.28;;;14.15;;
63316;SDS011;49822;41.468;13.560;2022-12-29T06:16:38;29.15;;;13.55;;
63316;SDS011;49822;41.468;13.560;2022-12-29T06:19:09;36.13;;;14.10;;
63316;SDS011;49822;41.468;13.560;2022-12-29T06:21:37;32.65;;;14.85;;
63316;SDS011;49822;41.468;13.560;2022-12-29T06:24:05;40.10;;;14.80;;
63316;SDS011;49822;41.468;13.560;2022-12-29T06:26:34;33.10;;;13.75;;
63316;SDS011;49822;41.468;13.560;2022-12-29T06:29:03;32.30;;;14.95;;
63316;SDS011;49822;41.468;13.560;2022-12-29T06:31:31;36.45;;;15.50;;
63316;SDS011;49822;41.468;13.560;2022-12-29T06:34:00;31.15;;;15.60;;
63316;SDS011;49822;41.468;13.560;2022-12-29T06:36:35;34.83;;;14.52;;
63316;SDS011;49822;41.468;13.560;2022-12-29T06:39:03;30.45;;;13.25;;
63316;SDS011;49822;41.468;13.560;2022-12-29T06:41:32;64.10;;;21.17;;
63316;SDS011;49822;41.468;13.560;2022-12-29T06:44:19;104.32;;;30.00;;
63316;SDS011;49822;41.468;13.560;2022-12-29T06:46:50;61.95;;;25.50;;
63316;SDS011;49822;41.468;13.560;2022-12-29T06:49:17;50.20;;;20.88;;
63316;SDS011;49822;41.468;13.560;2022-12-29T06:51:46;30.63;;;14.85;;
63316;SDS011;49822;41.468;13.560;2022-12-29T06:54:13;37.83;;;16.17;;
63316;SDS011;49822;41.468;13.560;2022-12-29T06:56:42;34.95;;;16.08;;
63316;SDS011;49822;41.468;13.560;2022-12-29T06:59:10;37.50;;;16.63;;
63316;SDS011;49822;41.468;13.560;2022-12-29T07:01:37;42.88;;;16.63;;
63316;SDS011;49822;41.468;13.560;2022-12-29T07:04:06;37.45;;;15.82;;
63316;SDS011;49822;41.468;13.560;2022-12-29T07:06:33;35.67;;;15.07;;
63316;SDS011;49822;41.468;13.560;2022-12-29T07:09:01;36.42;;;14.90;;
63316;SDS011;49822;41.468;13.560;2022-12-29T07:11:29;43.10;;;16.95;;
63316;SDS011;49822;41.468;13.560;2022-12-29T07:13:56;41.10;;;17.30;;
63316;SDS011;49822;41.468;13.560;2022-12-29T07:16:31;36.88;;;16.10;;
63316;SDS011;49822;41.468;13.560;2022-12-29T07:18:59;44.40;;;19.17;;
63316;SDS011;49822;41.468;13.560;2022-12-29T07:21:28;39.92;;;16.88;;
63316;SDS011;49822;41.468;13.560;2022-12-29T07:23:55;41.72;;;16.92;;
63316;SDS011;49822;41.468;13.560;2022-12-29T07:26:23;42.30;;;16.73;;
63316;SDS011;49822;41.468;13.560;2022-12-29T07:28:56;42.50;;;17.48;;
63316;SDS011;49822;41.468;13.560;2022-12-29T07:31:23;45.80;;;17.85;;
63316;SDS011;49822;41.468;13.560;2022-12-29T07:33:52;37.55;;;18.10;;
63316;SDS011;49822;41.468;13.560;2022-12-29T07:36:19;38.05;;;17.15;;
63316;SDS011;49822;41.468;13.560;2022-12-29T07:38:47;39.85;;;17.85;;
63316;SDS011;49822;41.468;13.560;2022-12-29T07:41:15;35.85;;;17.45;;
63316;SDS011;49822;41.468;13.560;2022-12-29T07:43:46;57.67;;;20.75;;
63316;SDS011;49822;41.468;13.560;2022-12-29T07:46:41;37.40;;;16.27;;
63316;SDS011;49822;41.468;13.560;2022-12-29T07:51:50;30.70;;;15.45;;
63316;SDS011;49822;41.468;13.560;2022-12-29T07:54:19;29.92;;;14.05;;
63316;SDS011;49822;41.468;13.560;2022-12-29T07:56:47;36.85;;;17.38;;
63316;SDS011;49822;41.468;13.560;2022-12-29T07:59:15;44.78;;;17.88;;
63316;SDS011;49822;41.468;13.560;2022-12-29T08:01:42;35.72;;;17.15;;
63316;SDS011;49822;41.468;13.560;2022-12-29T08:04:10;44.65;;;21.40;;
63316;SDS011;49822;41.468;13.560;2022-12-29T08:06:37;48.28;;;22.88;;
63316;SDS011;49822;41.468;13.560;2022-12-29T08:09:05;38.83;;;18.58;;
63316;SDS011;49822;41.468;13.560;2022-12-29T08:11:45;37.30;;;17.90;;
63316;SDS011;49822;41.468;13.560;2022-12-29T08:14:13;36.80;;;19.17;;
63316;SDS011;49822;41.468;13.560;2022-12-29T08:16:40;38.45;;;20.63;;
63316;SDS011;49822;41.468;13.560;2022-12-29T08:19:09;37.45;;;19.60;;
63316;SDS011;49822;41.468;13.560;2022-12-29T08:21:38;39.72;;;20.30;;
63316;SDS011;49822;41.468;13.560;2022-12-29T08:24:06;45.58;;;20.40;;
63316;SDS011;49822;41.468;13.560;2022-12-29T08:26:35;51.80;;;21.65;;
63316;SDS011;49822;41.468;13.560;2022-12-29T08:29:02;41.00;;;21.67;;
63316;SDS011;49822;41.468;13.560;2022-12-29T08:31:29;40.05;;;19.20;;
63316;SDS011;49822;41.468;13.560;2022-12-29T08:33:57;43.55;;;20.17;;
63316;SDS011;49822;41.468;13.560;2022-12-29T08:36:27;45.80;;;19.85;;
63316;SDS011;49822;41.468;13.560;2022-12-29T08:38:54;41.50;;;20.90;;
63316;SDS011;49822;41.468;13.560;2022-12-29T08:41:22;42.30;;;23.20;;
63316;SDS011;49822;41.468;13.560;2022-12-29T08:43:50;50.97;;;25.67;;
63316;SDS011;49822;41.468;13.560;2022-12-29T08:46:19;74.70;;;39.05;;
63316;SDS011;49822;41.468;13.560;2022-12-29T08:48:47;58.90;;;30.48;;
63316;SDS011;49822;41.468;13.560;2022-12-29T08:51:14;112.28;;;42.95;;
63316;SDS011;49822;41.468;13.560;2022-12-29T08:53:50;67.35;;;30.15;;
63316;SDS011;49822;41.468;13.560;2022-12-29T08:56:19;45.50;;;23.48;;
63316;SDS011;49822;41.468;13.560;2022-12-29T08:58:52;39.08;;;20.98;;
63316;SDS011;49822;41.468;13.560;2022-12-29T09:01:21;41.33;;;23.40;;
63316;SDS011;49822;41.468;13.560;2022-12-29T09:03:50;67.95;;;33.63;;
63316;SDS011;49822;41.468;13.560;2022-12-29T09:06:41;53.10;;;29.25;;
63316;SDS011;49822;41.468;13.560;2022-12-29T09:09:09;68.75;;;30.17;;
63316;SDS011;49822;41.468;13.560;2022-12-29T09:11:38;51.72;;;25.13;;
63316;SDS011;49822;41.468;13.560;2022-12-29T09:14:05;47.22;;;23.45;;
63316;SDS011;49822;41.468;13.560;2022-12-29T09:16:33;58.20;;;29.15;;
63316;SDS011;49822;41.468;13.560;2022-12-29T09:19:01;61.90;;;27.80;;
63316;SDS011;49822;41.468;13.560;2022-12-29T09:21:29;71.68;;;32.58;;
63316;SDS011;49822;41.468;13.560;2022-12-29T09:23:57;56.47;;;25.27;;
63316;SDS011;49822;41.468;13.560;2022-12-29T09:26:26;49.95;;;22.25;;
63316;SDS011;49822;41.468;13.560;2022-12-29T09:36:20;53.38;;;21.00;;
63316;SDS011;49822;41.468;13.560;2022-12-29T09:38:48;54.25;;;23.65;;
63316;SDS011;49822;41.468;13.560;2022-12-29T09:41:26;48.83;;;20.40;;
63316;SDS011;49822;41.468;13.560;2022-12-29T09:44:07;55.00;;;18.98;;
63316;SDS011;49822;41.468;13.560;2022-12-29T09:46:57;57.40;;;24.58;;
63316;SDS011;49822;41.468;13.560;2022-12-29T10:05:38;64.82;;;28.40;;
63316;SDS011;49822;41.468;13.560;2022-12-29T10:17:00;64.13;;;25.35;;
63316;SDS011;49822;41.468;13.560;2022-12-29T10:25:20;62.22;;;23.55;;
63316;SDS011;49822;41.468;13.560;2022-12-29T10:27:57;63.08;;;24.17;;
63316;SDS011;49822;41.468;13.560;2022-12-29T10:30:28;69.55;;;26.50;;
63316;SDS011;49822;41.468;13.560;2022-12-29T10:33:00;61.55;;;25.90;;
63316;SDS011;49822;41.468;13.560;2022-12-29T10:35:32;58.65;;;24.10;;
63316;SDS011;49822;41.468;13.560;2022-12-29T10:41:17;75.30;;;28.85;;
63316;SDS011;49822;41.468;13.560;2022-12-29T10:43:53;74.78;;;29.15;;
63316;SDS011;49822;41.468;13.560;2022-12-29T10:46:25;70.25;;;27.00;;
63316;SDS011;49822;41.468;13.560;2022-12-29T10:49:02;68.78;;;25.33;;
63316;SDS011;49822;41.468;13.560;2022-12-29T10:51:32;60.70;;;24.92;;
63316;SDS011;49822;41.468;13.560;2022-12-29T10:54:05;74.93;;;29.65;;
63316;SDS011;49822;41.468;13.560;2022-12-29T10:57:17;82.22;;;28.58;;
63316;SDS011;49822;41.468;13.560;2022-12-29T10:59:46;69.95;;;27.23;;
63316;SDS011;49822;41.468;13.560;2022-12-29T11:04:49;68.13;;;28.23;;
63316;SDS011;49822;41.468;13.560;2022-12-29T11:07:19;86.82;;;36.20;;
63316;SDS011;49822;41.468;13.560;2022-12-29T11:09:52;81.82;;;32.00;;
63316;SDS011;49822;41.468;13.560;2022-12-29T11:17:45;76.38;;;28.15;;
63316;SDS011;49822;41.468;13.560;2022-12-29T11:22:52;93.80;;;33.13;;
63316;SDS011;49822;41.468;13.560;2022-12-29T11:25:20;97.55;;;37.25;;
63316;SDS011;49822;41.468;13.560;2022-12-29T11:27:57;71.35;;;27.65;;
63316;SDS011;49822;41.468;13.560;2022-12-29T11:30:31;62.60;;;27.08;;
63316;SDS011;49822;41.468;13.560;2022-12-29T11:32:58;69.53;;;28.02;;
63316;SDS011;49822;41.468;13.560;2022-12-29T11:35:34;61.78;;;27.45;;
63316;SDS011;49822;41.468;13.560;2022-12-29T11:38:33;67.68;;;26.77;;
63316;SDS011;49822;41.468;13.560;2022-12-29T11:41:02;63.55;;;25.25;;
63316;SDS011;49822;41.468;13.560;2022-12-29T11:43:31;60.40;;;26.33;;
63316;SDS011;49822;41.468;13.560;2022-12-29T11:48:33;55.47;;;22.73;;
63316;SDS011;49822;41.468;13.560;2022-12-29T11:51:06;62.40;;;24.15;;
63316;SDS011;49822;41.468;13.560;2022-12-29T11:53:43;72.70;;;28.80;;
63316;SDS011;49822;41.468;13.560;2022-12-29T11:56:12;56.58;;;25.30;;
63316;SDS011;49822;41.468;13.560;2022-12-29T11:58:42;68.22;;;26.15;;
63316;SDS011;49822;41.468;13.560;2022-12-29T12:01:15;65.82;;;27.92;;
63316;SDS011;49822;41.468;13.560;2022-12-29T12:04:07;66.30;;;29.17;;
63316;SDS011;49822;41.468;13.560;2022-12-29T12:06:47;63.90;;;28.55;;
63316;SDS011;49822;41.468;13.560;2022-12-29T12:09:29;77.20;;;30.45;;
63316;SDS011;49822;41.468;13.560;2022-12-29T12:12:04;68.55;;;28.65;;
63316;SDS011;49822;41.468;13.560;2022-12-29T12:14:38;79.00;;;30.85;;
63316;SDS011;49822;41.468;13.560;2022-12-29T12:17:32;78.40;;;32.72;;
63316;SDS011;49822;41.468;13.560;2022-12-29T12:22:46;81.63;;;39.80;;
63316;SDS011;49822;41.468;13.560;2022-12-29T12:25:21;87.20;;;36.42;;
63316;SDS011;49822;41.468;13.560;2022-12-29T12:27:57;86.20;;;30.98;;
63316;SDS011;49822;41.468;13.560;2022-12-29T12:30:30;94.40;;;37.78;;
63316;SDS011;49822;41.468;13.560;2022-12-29T12:36:04;79.80;;;35.30;;
63316;SDS011;49822;41.468;13.560;2022-12-29T12:39:12;88.88;;;36.05;;
63316;SDS011;49822;41.468;13.560;2022-12-29T12:44:48;75.65;;;33.65;;
63316;SDS011;49822;41.468;13.560;2022-12-29T12:47:44;83.05;;;35.92;;
63316;SDS011;49822;41.468;13.560;2022-12-29T12:50:14;72.07;;;32.63;;
63316;SDS011;49822;41.468;13.560;2022-12-29T12:53:40;75.07;;;32.95;;
63316;SDS011;49822;41.468;13.560;2022-12-29T12:58:43;77.82;;;33.22;;
63316;SDS011;49822;41.468;13.560;2022-12-29T13:06:59;61.53;;;27.17;;
63316;SDS011;49822;41.468;13.560;2022-12-29T13:09:53;58.40;;;27.77;;
63316;SDS011;49822;41.468;13.560;2022-12-29T13:15:50;60.67;;;28.60;;
63316;SDS011;49822;41.468;13.560;2022-12-29T13:19:14;59.65;;;28.48;;
63316;SDS011;49822;41.468;13.560;2022-12-29T13:33:41;50.10;;;24.50;;
63316;SDS011;49822;41.468;13.560;2022-12-29T13:36:25;47.33;;;21.38;;
63316;SDS011;49822;41.468;13.560;2022-12-29T13:42:03;42.70;;;19.25;;
63316;SDS011;49822;41.468;13.560;2022-12-29T13:44:37;39.58;;;18.70;;
63316;SDS011;49822;41.468;13.560;2022-12-29T13:49:53;49.13;;;24.02;;
63316;SDS011;49822;41.468;13.560;2022-12-29T14:01:09;56.65;;;27.77;;
63316;SDS011;49822;41.468;13.560;2022-12-29T14:03:48;48.33;;;22.95;;
63316;SDS011;49822;41.468;13.560;2022-12-29T14:06:24;48.47;;;21.42;;
63316;SDS011;49822;41.468;13.560;2022-12-29T14:08:56;46.60;;;22.58;;
63316;SDS011;49822;41.468;13.560;2022-12-29T14:11:35;61.30;;;28.17;;
63316;SDS011;49822;41.468;13.560;2022-12-29T14:14:11;80.70;;;35.78;;
63316;SDS011;49822;41.468;13.560;2022-12-29T14:16:47;64.57;;;28.20;;
63316;SDS011;49822;41.468;13.560;2022-12-29T14:19:16;61.03;;;25.10;;
63316;SDS011;49822;41.468;13.560;2022-12-29T14:21:54;60.63;;;28.05;;
63316;SDS011;49822;41.468;13.560;2022-12-29T14:30:44;38.90;;;20.60;;
63316;SDS011;49822;41.468;13.560;2022-12-29T14:33:32;45.93;;;21.97;;
63316;SDS011;49822;41.468;13.560;2022-12-29T14:36:20;41.53;;;19.88;;
63316;SDS011;49822;41.468;13.560;2022-12-29T14:39:01;41.72;;;21.58;;
63316;SDS011;49822;41.468;13.560;2022-12-29T14:41:34;48.97;;;22.48;;
63316;SDS011;49822;41.468;13.560;2022-12-29T14:49:21;53.97;;;25.35;;
63316;SDS011;49822;41.468;13.560;2022-12-29T14:52:17;64.35;;;28.90;;
63316;SDS011;49822;41.468;13.560;2022-12-29T14:54:48;54.65;;;25.83;;
63316;SDS011;49822;41.468;13.560;2022-12-29T14:59:58;53.85;;;24.90;;
63316;SDS011;49822;41.468;13.560;2022-12-29T15:02:36;52.17;;;25.98;;
63316;SDS011;49822;41.468;13.560;2022-12-29T15:05:19;56.00;;;23.77;;
63316;SDS011;49822;41.468;13.560;2022-12-29T15:08:02;56.65;;;27.27;;
63316;SDS011;49822;41.468;13.560;2022-12-29T15:10:36;56.28;;;25.55;;
63316;SDS011;49822;41.468;13.560;2022-12-29T15:13:31;49.80;;;24.40;;
63316;SDS011;49822;41.468;13.560;2022-12-29T15:16:02;57.70;;;26.17;;
63316;SDS011;49822;41.468;13.560;2022-12-29T15:18:34;54.72;;;25.42;;
63316;SDS011;49822;41.468;13.560;2022-12-29T15:21:11;59.17;;;25.80;;
63316;SDS011;49822;41.468;13.560;2022-12-29T15:23:40;57.83;;;24.83;;
63316;SDS011;49822;41.468;13.560;2022-12-29T15:28:43;51.22;;;22.25;;
63316;SDS011;49822;41.468;13.560;2022-12-29T15:31:22;63.55;;;27.60;;
63316;SDS011;49822;41.468;13.560;2022-12-29T15:34:08;66.30;;;27.15;;
63316;SDS011;49822;41.468;13.560;2022-12-29T15:36:40;60.92;;;27.80;;
63316;SDS011;49822;41.468;13.560;2022-12-29T15:39:20;56.47;;;28.17;;
63316;SDS011;49822;41.468;13.560;2022-12-29T15:41:55;51.88;;;26.10;;
63316;SDS011;49822;41.468;13.560;2022-12-29T15:44:38;51.50;;;24.33;;
63316;SDS011;49822;41.468;13.560;2022-12-29T15:47:16;50.30;;;22.92;;
63316;SDS011;49822;41.468;13.560;2022-12-29T15:49:50;54.33;;;23.05;;
63316;SDS011;49822;41.468;13.560;2022-12-29T15:52:31;49.65;;;21.65;;
63316;SDS011;49822;41.468;13.560;2022-12-29T15:55:00;49.15;;;21.85;;
63316;SDS011;49822;41.468;13.560;2022-12-29T15:57:30;61.47;;;28.17;;
63316;SDS011;49822;41.468;13.560;2022-12-29T16:00:20;105.68;;;36.30;;
63316;SDS011;49822;41.468;13.560;2022-12-29T16:02:53;110.15;;;38.25;;
63316;SDS011;49822;41.468;13.560;2022-12-29T16:05:23;57.17;;;24.02;;
63316;SDS011;49822;41.468;13.560;2022-12-29T16:07:52;48.85;;;23.92;;
63316;SDS011;49822;41.468;13.560;2022-12-29T16:10:27;50.15;;;23.15;;
63316;SDS011;49822;41.468;13.560;2022-12-29T16:15:54;55.25;;;26.10;;
63316;SDS011;49822;41.468;13.560;2022-12-29T16:22:02;68.75;;;31.15;;
63316;SDS011;49822;41.468;13.560;2022-12-29T16:24:38;60.80;;;25.98;;
63316;SDS011;49822;41.468;13.560;2022-12-29T16:27:07;51.80;;;21.08;;
63316;SDS011;49822;41.468;13.560;2022-12-29T16:29:44;49.92;;;21.55;;
63316;SDS011;49822;41.468;13.560;2022-12-29T16:35:16;27.40;;;13.05;;
63316;SDS011;49822;41.468;13.560;2022-12-29T16:48:24;53.50;;;26.88;;
63316;SDS011;49822;41.468;13.560;2022-12-29T16:51:01;53.80;;;24.45;;
63316;SDS011;49822;41.468;13.560;2022-12-29T16:53:55;46.53;;;24.10;;
63316;SDS011;49822;41.468;13.560;2022-12-29T16:56:24;57.20;;;24.45;;
63316;SDS011;49822;41.468;13.560;2022-12-29T16:59:04;67.78;;;28.48;;
63316;SDS011;49822;41.468;13.560;2022-12-29T17:01:36;115.57;;;42.28;;
63316;SDS011;49822;41.468;13.560;2022-12-29T17:04:06;96.45;;;37.67;;
63316;SDS011;49822;41.468;13.560;2022-12-29T17:06:36;68.65;;;34.13;;
63316;SDS011;49822;41.468;13.560;2022-12-29T17:09:18;38.47;;;19.23;;
63316;SDS011;49822;41.468;13.560;2022-12-29T17:11:55;47.20;;;21.08;;
63316;SDS011;49822;41.468;13.560;2022-12-29T17:17:21;102.53;;;41.35;;
63316;SDS011;49822;41.468;13.560;2022-12-29T17:20:22;91.90;;;36.95;;
63316;SDS011;49822;41.468;13.560;2022-12-29T17:22:53;77.60;;;34.45;;
63316;SDS011;49822;41.468;13.560;2022-12-29T17:25:26;83.75;;;34.53;;
63316;SDS011;49822;41.468;13.560;2022-12-29T17:28:15;79.00;;;33.78;;
63316;SDS011;49822;41.468;13.560;2022-12-29T17:31:01;70.95;;;31.98;;
63316;SDS011;49822;41.468;13.560;2022-12-29T17:33:34;67.38;;;30.98;;
63316;SDS011;49822;41.468;13.560;2022-12-29T17:36:04;78.90;;;32.13;;
63316;SDS011;49822;41.468;13.560;2022-12-29T17:38:34;66.68;;;29.98;;
63316;SDS011;49822;41.468;13.560;2022-12-29T17:41:03;86.22;;;32.53;;
63316;SDS011;49822;41.468;13.560;2022-12-29T17:43:37;81.50;;;32.97;;
63316;SDS011;49822;41.468;13.560;2022-12-29T17:46:05;77.30;;;34.30;;
63316;SDS011;49822;41.468;13.560;2022-12-29T17:48:35;64.00;;;32.75;;